sensor_id;sensor_type;location;lat;lon;timestamp;pressure;altitude;pressure_sealevel;temperature;humidity
13734;BME280;43298;52.560;13.508;2023-03-02T00:01:06;102058.44;;;-2.61;100.00
13734;BME280;43298;52.560;13.508;2023-03-02T00:03:36;102058.38;;;-2.63;100.00
13734;BME280;43298;52.560;13.508;2023-03-02T00:06:03;102060.06;;;-2.63;100.00
13734;BME280;43298;52.560;13.508;2023-03-02T00:08:30;102063.03;;;-2.50;100.00
13734;BME280;43298;52.560;13.508;2023-03-02T00:10:57;102062.00;;;-2.55;100.00
13734;BME280;43298;52.560;13.508;2023-03-02T00:13:25;102074.50;;;-2.61;100.00
13734;BME280;43298;52.560;13.508;2023-03-02T00:15:51;102069.38;;;-2.62;100.00
13734;BME280;43298;52.560;13.508;2023-03-02T00:18:17;102080.22;;;-2.66;100.00
13734;BME280;43298;52.560;13.508;2023-03-02T00:20:43;102078.59;;;-2.64;100.00
13734;BME280;43298;52.560;13.508;2023-03-02T00:23:08;102080.22;;;-2.66;100.00
13734;BME280;43298;52.560;13.508;2023-03-02T00:25:35;102084.69;;;-2.59;100.00
13734;BME280;43298;52.560;13.508;2023-03-02T00:28:00;102072.13;;;-2.56;100.00
13734;BME280;43298;52.560;13.508;2023-03-02T00:30:26;102078.63;;;-2.63;100.00
13734;BME280;43298;52.560;13.508;2023-03-02T00:32:52;102073.41;;;-2.67;100.00
13734;BME280;43298;52.560;13.508;2023-03-02T00:35:18;102072.63;;;-2.66;100.00
13734;BME280;43298;52.560;13.508;2023-03-02T00:37:44;102061.41;;;-2.73;100.00
13734;BME280;43298;52.560;13.508;2023-03-02T00:40:10;102066.41;;;-2.76;100.00
13734;BME280;43298;52.560;13.508;2023-03-02T00:42:37;102061.38;;;-2.74;100.00
13734;BME280;43298;52.560;13.508;2023-03-02T00:45:06;102062.13;;;-2.77;100.00
13734;BME280;43298;52.560;13.508;2023-03-02T00:47:34;102067.16;;;-2.78;100.00
13734;BME280;43298;52.560;13.508;2023-03-02T00:50:01;102060.53;;;-2.75;100.00
13734;BME280;43298;52.560;13.508;2023-03-02T00:52:32;102067.25;;;-2.75;100.00
13734;BME280;43298;52.560;13.508;2023-03-02T00:54:58;102064.94;;;-2.69;100.00
13734;BME280;43298;52.560;13.508;2023-03-02T00:57:23;102065.75;;;-2.70;100.00
13734;BME280;43298;52.560;13.508;2023-03-02T00:59:49;102062.28;;;-2.72;100.00
13734;BME280;43298;52.560;13.508;2023-03-02T01:02:15;102062.91;;;-2.79;100.00
13734;BME280;43298;52.560;13.508;2023-03-02T01:04:43;102059.38;;;-2.84;100.00
13734;BME280;43298;52.560;13.508;2023-03-02T01:07:15;102057.72;;;-2.82;100.00
13734;BME280;43298;52.560;13.508;2023-03-02T01:09:43;102052.72;;;-2.81;100.00
13734;BME280;43298;52.560;13.508;2023-03-02T01:12:10;102058.72;;;-2.79;100.00
13734;BME280;43298;52.560;13.508;2023-03-02T01:14:37;102052.66;;;-2.82;100.00
13734;BME280;43298;52.560;13.508;2023-03-02T01:17:08;102061.13;;;-2.82;100.00
13734;BME280;43298;52.560;13.508;2023-03-02T01:19:35;102052.50;;;-2.87;100.00
13734;BME280;43298;52.560;13.508;2023-03-02T01:22:02;102050.69;;;-2.91;100.00
13734;BME280;43298;52.560;13.508;2023-03-02T01:24:28;102043.00;;;-2.94;100.00
13734;BME280;43298;52.560;13.508;2023-03-02T01:26:53;102041.38;;;-2.92;100.00
13734;BME280;43298;52.560;13.508;2023-03-02T01:29:19;102034.41;;;-2.99;100.00
13734;BME280;43298;52.560;13.508;2023-03-02T01:31:45;102031.06;;;-2.98;100.00
13734;BME280;43298;52.560;13.508;2023-03-02T01:34:11;102030.13;;;-3.01;100.00
13734;BME280;43298;52.560;13.508;2023-03-02T01:36:37;102033.47;;;-3.01;100.00
13734;BME280;43298;52.560;13.508;2023-03-02T01:39:03;102032.38;;;-3.09;100.00
13734;BME280;43298;52.560;13.508;2023-03-02T01:41:30;102029.94;;;-3.06;100.00
13734;BME280;43298;52.560;13.508;2023-03-02T01:43:56;102030.28;;;-2.97;100.00
13734;BME280;43298;52.560;13.508;2023-03-02T01:46:27;102029.72;;;-2.88;100.00
13734;BME280;43298;52.560;13.508;2023-03-02T01:49:06;102028.03;;;-2.88;100.00
13734;BME280;43298;52.560;13.508;2023-03-02T01:51:44;102027.13;;;-2.90;100.00
13734;BME280;43298;52.560;13.508;2023-03-02T01:54:15;102020.94;;;-2.98;100.00
13734;BME280;43298;52.560;13.508;2023-03-02T01:56:51;102027.38;;;-3.08;100.00
13734;BME280;43298;52.560;13.508;2023-03-02T01:59:21;102018.78;;;-3.13;100.00
13734;BME280;43298;52.560;13.508;2023-03-02T02:01:54;102018.47;;;-2.96;100.00
13734;BME280;43298;52.560;13.508;2023-03-02T02:04:22;102009.66;;;-3.08;100.00
13734;BME280;43298;52.560;13.508;2023-03-02T02:07:05;102010.44;;;-3.10;100.00
13734;BME280;43298;52.560;13.508;2023-03-02T02:09:38;102009.44;;;-3.14;100.00
13734;BME280;43298;52.560;13.508;2023-03-02T02:12:05;102008.56;;;-3.16;100.00
13734;BME280;43298;52.560;13.508;2023-03-02T02:14:31;102007.63;;;-3.18;100.00
13734;BME280;43298;52.560;13.508;2023-03-02T02:16:57;102007.56;;;-3.21;100.00
13734;BME280;43298;52.560;13.508;2023-03-02T02:20:34;102002.44;;;-3.22;100.00
13734;BME280;43298;52.560;13.508;2023-03-02T02:28:27;102000.22;;;-3.37;100.00
13734;BME280;43298;52.560;13.508;2023-03-02T02:33:50;102006.09;;;-3.38;100.00
13734;BME280;43298;52.560;13.508;2023-03-02T02:36:31;102001.69;;;-3.43;100.00
13734;BME280;43298;52.560;13.508;2023-03-02T02:39:03;101998.19;;;-3.47;100.00
13734;BME280;43298;52.560;13.508;2023-03-02T02:41:35;101994.59;;;-3.53;100.00
13734;BME280;43298;52.560;13.508;2023-03-02T02:44:03;101999.81;;;-3.49;100.00
13734;BME280;43298;52.560;13.508;2023-03-02T02:46:29;101992.19;;;-3.50;100.00
13734;BME280;43298;52.560;13.508;2023-03-02T02:48:56;101991.97;;;-3.56;100.00
13734;BME280;43298;52.560;13.508;2023-03-02T02:51:26;101982.50;;;-3.62;100.00
13734;BME280;43298;52.560;13.508;2023-03-02T02:54:00;101989.06;;;-3.67;100.00
13734;BME280;43298;52.560;13.508;2023-03-02T02:56:35;101986.69;;;-3.62;100.00
13734;BME280;43298;52.560;13.508;2023-03-02T02:59:23;101985.13;;;-3.59;100.00
13734;BME280;43298;52.560;13.508;2023-03-02T03:01:54;101986.69;;;-3.62;100.00
13734;BME280;43298;52.560;13.508;2023-03-02T03:04:25;101985.91;;;-3.61;100.00
13734;BME280;43298;52.560;13.508;2023-03-02T03:06:56;101986.84;;;-3.58;100.00
13734;BME280;43298;52.560;13.508;2023-03-02T03:09:24;101975.91;;;-3.57;100.00
13734;BME280;43298;52.560;13.508;2023-03-02T03:12:03;101981.25;;;-3.49;100.00
13734;BME280;43298;52.560;13.508;2023-03-02T03:14:38;101977.06;;;-3.49;100.00
13734;BME280;43298;52.560;13.508;2023-03-02T03:17:05;101979.38;;;-3.55;100.00
13734;BME280;43298;52.560;13.508;2023-03-02T03:19:37;101975.38;;;-3.48;100.00
13734;BME280;43298;52.560;13.508;2023-03-02T03:22:04;101983.63;;;-3.54;100.00
13734;BME280;43298;52.560;13.508;2023-03-02T03:24:32;101975.44;;;-3.47;100.00
13734;BME280;43298;52.560;13.508;2023-03-02T03:27:00;101982.44;;;-3.40;100.00
13734;BME280;43298;52.560;13.508;2023-03-02T03:29:28;101982.22;;;-3.46;100.00
13734;BME280;43298;52.560;13.508;2023-03-02T03:31:55;101987.66;;;-3.35;100.00
13734;BME280;43298;52.560;13.508;2023-03-02T03:34:22;101985.00;;;-3.38;100.00
13734;BME280;43298;52.560;13.508;2023-03-02T03:36:49;101985.94;;;-3.36;100.00
13734;BME280;43298;52.560;13.508;2023-03-02T03:39:16;101986.94;;;-3.31;100.00
13734;BME280;43298;52.560;13.508;2023-03-02T03:41:42;101980.72;;;-3.41;100.00
13734;BME280;43298;52.560;13.508;2023-03-02T03:44:09;101989.78;;;-3.46;100.00
13734;BME280;43298;52.560;13.508;2023-03-02T03:46:35;101982.25;;;-3.44;100.00
13734;BME280;43298;52.560;13.508;2023-03-02T03:49:02;101988.63;;;-3.55;100.00
13734;BME280;43298;52.560;13.508;2023-03-02T03:51:28;101986.84;;;-3.58;100.00
13734;BME280;43298;52.560;13.508;2023-03-02T03:54:03;101985.91;;;-3.61;100.00
13734;BME280;43298;52.560;13.508;2023-03-02T03:56:33;101979.75;;;-3.68;100.00
13734;BME280;43298;52.560;13.508;2023-03-02T03:59:00;101981.56;;;-3.64;100.00
13734;BME280;43298;52.560;13.508;2023-03-02T04:02:08;101977.22;;;-3.68;100.00
13734;BME280;43298;52.560;13.508;2023-03-02T04:04:34;101978.97;;;-3.67;100.00
13734;BME280;43298;52.560;13.508;2023-03-02T04:07:00;101975.84;;;-3.60;100.00
13734;BME280;43298;52.560;13.508;2023-03-02T04:09:26;101972.03;;;-3.49;100.00
13734;BME280;43298;52.560;13.508;2023-03-02T04:11:54;101975.19;;;-3.54;100.00
13734;BME280;43298;52.560;13.508;2023-03-02T04:14:22;101975.63;;;-3.66;100.00
13734;BME280;43298;52.560;13.508;2023-03-02T04:16:48;101972.97;;;-3.69;100.00
13734;BME280;43298;52.560;13.508;2023-03-02T04:19:15;101972.16;;;-3.44;100.00
13734;BME280;43298;52.560;13.508;2023-03-02T04:21:50;101969.09;;;-3.59;100.00
13734;BME280;43298;52.560;13.508;2023-03-02T04:24:20;101972.28;;;-3.65;100.00
13734;BME280;43298;52.560;13.508;2023-03-02T04:26:47;101978.97;;;-3.67;100.00
13734;BME280;43298;52.560;13.508;2023-03-02T04:29:14;101977.97;;;-3.70;100.00
13734;BME280;43298;52.560;13.508;2023-03-02T04:31:40;101978.56;;;-3.77;100.00
13734;BME280;43298;52.560;13.508;2023-03-02T04:34:07;101981.22;;;-3.74;100.00
13734;BME280;43298;52.560;13.508;2023-03-02T04:36:35;101985.66;;;-3.67;100.00
13734;BME280;43298;52.560;13.508;2023-03-02T04:39:04;101985.72;;;-3.66;100.00
13734;BME280;43298;52.560;13.508;2023-03-02T04:41:30;101996.06;;;-3.60;100.00
13734;BME280;43298;52.560;13.508;2023-03-02T04:43:57;101996.38;;;-3.51;100.00
13734;BME280;43298;52.560;13.508;2023-03-02T04:46:25;101992.47;;;-3.41;100.00
13734;BME280;43298;52.560;13.508;2023-03-02T04:48:51;101996.75;;;-3.40;100.00
13734;BME280;43298;52.560;13.508;2023-03-02T04:51:28;102003.09;;;-3.28;100.00
13734;BME280;43298;52.560;13.508;2023-03-02T04:54:00;101994.09;;;-3.20;100.00
13734;BME280;43298;52.560;13.508;2023-03-02T04:56:26;101998.97;;;-3.24;100.00
13734;BME280;43298;52.560;13.508;2023-03-02T04:58:52;102003.16;;;-3.25;100.00
13734;BME280;43298;52.560;13.508;2023-03-02T05:01:19;102001.47;;;-3.26;100.00
13734;BME280;43298;52.560;13.508;2023-03-02T05:03:45;101998.97;;;-3.24;100.00
13734;BME280;43298;52.560;13.508;2023-03-02T05:06:12;101997.97;;;-3.29;100.00
13734;BME280;43298;52.560;13.508;2023-03-02T05:08:38;101993.59;;;-3.33;100.00
13734;BME280;43298;52.560;13.508;2023-03-02T05:11:06;101996.78;;;-3.39;100.00
13734;BME280;43298;52.560;13.508;2023-03-02T05:13:33;101993.53;;;-3.36;100.00
13734;BME280;43298;52.560;13.508;2023-03-02T05:15:59;102003.41;;;-3.42;100.00
13734;BME280;43298;52.560;13.508;2023-03-02T05:18:25;101989.91;;;-3.43;100.00
13734;BME280;43298;52.560;13.508;2023-03-02T05:20:53;101997.38;;;-3.46;100.00
13734;BME280;43298;52.560;13.508;2023-03-02T05:23:20;102000.78;;;-3.45;100.00
13734;BME280;43298;52.560;13.508;2023-03-02T05:25:51;102002.28;;;-3.50;100.00
13734;BME280;43298;52.560;13.508;2023-03-02T05:28:19;101997.22;;;-3.27;100.00
13734;BME280;43298;52.560;13.508;2023-03-02T05:30:45;101988.06;;;-2.18;100.00
13734;BME280;43298;52.560;13.508;2023-03-02T05:33:12;102001.47;;;-1.65;100.00
13734;BME280;43298;52.560;13.508;2023-03-02T05:35:39;101998.56;;;-1.47;100.00
13734;BME280;43298;52.560;13.508;2023-03-02T05:38:06;102000.22;;;-1.49;100.00
13734;BME280;43298;52.560;13.508;2023-03-02T05:40:32;102000.97;;;-1.52;100.00
13734;BME280;43298;52.560;13.508;2023-03-02T05:42:58;101992.47;;;-1.54;100.00
13734;BME280;43298;52.560;13.508;2023-03-02T05:45:36;101987.34;;;-1.55;100.00
13734;BME280;43298;52.560;13.508;2023-03-02T05:48:03;101993.06;;;-1.62;100.00
13734;BME280;43298;52.560;13.508;2023-03-02T05:50:29;101992.00;;;-1.70;100.00
13734;BME280;43298;52.560;13.508;2023-03-02T05:52:55;101988.38;;;-1.78;100.00
13734;BME280;43298;52.560;13.508;2023-03-02T05:55:22;101989.94;;;-1.83;100.00
13734;BME280;43298;52.560;13.508;2023-03-02T05:57:49;101996.63;;;-1.85;100.00
13734;BME280;43298;52.560;13.508;2023-03-02T06:00:15;102004.28;;;-1.84;100.00
13734;BME280;43298;52.560;13.508;2023-03-02T06:02:42;102006.59;;;-1.91;100.00
13734;BME280;43298;52.560;13.508;2023-03-02T06:05:14;102012.50;;;-1.91;100.00
13734;BME280;43298;52.560;13.508;2023-03-02T06:07:40;102015.91;;;-1.90;100.00
13734;BME280;43298;52.560;13.508;2023-03-02T06:10:07;102020.13;;;-1.91;100.00
13734;BME280;43298;52.560;13.508;2023-03-02T06:12:33;102029.41;;;-1.91;100.00
13734;BME280;43298;52.560;13.508;2023-03-02T06:14:59;102032.69;;;-1.95;100.00
13734;BME280;43298;52.560;13.508;2023-03-02T06:17:25;102026.69;;;-1.97;100.00
13734;BME280;43298;52.560;13.508;2023-03-02T06:19:51;102033.47;;;-1.96;100.00
13734;BME280;43298;52.560;13.508;2023-03-02T06:22:17;102041.03;;;-1.98;100.00
13734;BME280;43298;52.560;13.508;2023-03-02T06:24:43;102046.03;;;-2.01;100.00
13734;BME280;43298;52.560;13.508;2023-03-02T06:27:11;102041.91;;;-1.97;100.00
13734;BME280;43298;52.560;13.508;2023-03-02T06:29:37;102042.72;;;-1.98;100.00
13734;BME280;43298;52.560;13.508;2023-03-02T06:32:03;102039.25;;;-2.00;100.00
13734;BME280;43298;52.560;13.508;2023-03-02T06:34:29;102037.66;;;-1.98;100.00
13734;BME280;43298;52.560;13.508;2023-03-02T06:36:55;102039.41;;;-1.96;100.00
13734;BME280;43298;52.560;13.508;2023-03-02T06:39:22;102038.38;;;-2.02;100.00
13734;BME280;43298;52.560;13.508;2023-03-02T06:41:48;102043.69;;;-1.93;100.00
13734;BME280;43298;52.560;13.508;2023-03-02T06:44:16;102046.19;;;-1.95;100.00
13734;BME280;43298;52.560;13.508;2023-03-02T06:46:43;102050.41;;;-1.95;100.00
13734;BME280;43298;52.560;13.508;2023-03-02T06:49:09;102047.78;;;-1.98;100.00
13734;BME280;43298;52.560;13.508;2023-03-02T06:51:36;102047.59;;;-2.04;100.00
13734;BME280;43298;52.560;13.508;2023-03-02T06:54:03;102051.94;;;-2.00;100.00
13734;BME280;43298;52.560;13.508;2023-03-02T06:56:29;102052.66;;;-2.04;100.00
13734;BME280;43298;52.560;13.508;2023-03-02T06:58:55;102050.47;;;-1.94;100.00
13734;BME280;43298;52.560;13.508;2023-03-02T07:01:21;102046.97;;;-1.97;100.00
13734;BME280;43298;52.560;13.508;2023-03-02T07:03:46;102048.88;;;-1.90;100.00
13734;BME280;43298;52.560;13.508;2023-03-02T07:06:12;102045.50;;;-1.89;100.00
13734;BME280;43298;52.560;13.508;2023-03-02T07:08:39;102057.09;;;-1.97;100.00
13734;BME280;43298;52.560;13.508;2023-03-02T07:11:10;102060.91;;;-1.83;100.00
13734;BME280;43298;52.560;13.508;2023-03-02T07:13:37;102059.91;;;-1.88;100.00
13734;BME280;43298;52.560;13.508;2023-03-02T07:16:09;102060.66;;;-1.91;100.00
13734;BME280;43298;52.560;13.508;2023-03-02T07:18:35;102067.88;;;-1.76;100.00
13734;BME280;43298;52.560;13.508;2023-03-02T07:21:02;102061.44;;;-1.65;100.00
13734;BME280;43298;52.560;13.508;2023-03-02T07:23:28;102064.00;;;-1.64;100.00
13734;BME280;43298;52.560;13.508;2023-03-02T07:25:55;102061.78;;;-1.83;100.00
13734;BME280;43298;52.560;13.508;2023-03-02T07:28:21;102061.72;;;-1.84;100.00
13734;BME280;43298;52.560;13.508;2023-03-02T07:30:52;102054.97;;;-1.84;100.00
13734;BME280;43298;52.560;13.508;2023-03-02T07:33:19;102059.41;;;-1.77;100.00
13734;BME280;43298;52.560;13.508;2023-03-02T07:35:45;102068.47;;;-1.85;100.00
13734;BME280;43298;52.560;13.508;2023-03-02T07:38:11;102060.72;;;-1.89;100.00
13734;BME280;43298;52.560;13.508;2023-03-02T07:40:41;102065.53;;;-1.70;100.00
13734;BME280;43298;52.560;13.508;2023-03-02T07:43:08;102061.63;;;-1.59;100.00
13734;BME280;43298;52.560;13.508;2023-03-02T07:45:36;102060.25;;;-1.48;100.00
13734;BME280;43298;52.560;13.508;2023-03-02T07:48:02;102061.72;;;-1.56;100.00
13734;BME280;43298;52.560;13.508;2023-03-02T07:50:28;102059.78;;;-1.65;100.00
13734;BME280;43298;52.560;13.508;2023-03-02T07:52:54;102060.25;;;-1.48;100.00
13734;BME280;43298;52.560;13.508;2023-03-02T07:55:20;102056.03;;;-1.48;100.00
13734;BME280;43298;52.560;13.508;2023-03-02T07:57:46;102057.25;;;-1.35;100.00
13734;BME280;43298;52.560;13.508;2023-03-02T08:00:13;102059.72;;;-1.37;100.00
13734;BME280;43298;52.560;13.508;2023-03-02T08:02:42;102063.50;;;-1.23;100.00
13734;BME280;43298;52.560;13.508;2023-03-02T08:05:09;102059.78;;;-1.34;100.00
13734;BME280;43298;52.560;13.508;2023-03-02T08:07:35;102061.97;;;-1.16;100.00
13734;BME280;43298;52.560;13.508;2023-03-02T08:10:02;102067.63;;;-1.26;100.00
13734;BME280;43298;52.560;13.508;2023-03-02T08:12:30;102063.28;;;-1.30;100.00
13734;BME280;43298;52.560;13.508;2023-03-02T08:14:56;102058.94;;;-1.34;100.00
13734;BME280;43298;52.560;13.508;2023-03-02T08:17:22;102060.19;;;-1.20;100.00
13734;BME280;43298;52.560;13.508;2023-03-02T08:19:48;102056.25;;;-1.09;100.00
13734;BME280;43298;52.560;13.508;2023-03-02T08:22:14;102061.50;;;-1.02;100.00
13734;BME280;43298;52.560;13.508;2023-03-02T08:24:40;102060.22;;;-0.86;100.00
13734;BME280;43298;52.560;13.508;2023-03-02T08:27:11;102070.00;;;-1.01;100.00
13734;BME280;43298;52.560;13.508;2023-03-02T08:29:37;102060.22;;;-0.86;100.00
13734;BME280;43298;52.560;13.508;2023-03-02T08:32:03;102056.25;;;-1.09;100.00
13734;BME280;43298;52.560;13.508;2023-03-02T08:34:29;102061.41;;;-1.06;100.00
13734;BME280;43298;52.560;13.508;2023-03-02T08:36:55;102059.66;;;-0.76;100.00
13734;BME280;43298;52.560;13.508;2023-03-02T08:39:21;102055.47;;;-0.74;100.00
13734;BME280;43298;52.560;13.508;2023-03-02T08:41:52;102053.78;;;-0.74;100.00
13734;BME280;43298;52.560;13.508;2023-03-02T08:44:18;102046.41;;;-0.65;100.00
13734;BME280;43298;52.560;13.508;2023-03-02T08:46:47;102045.66;;;-0.61;100.00
13734;BME280;43298;52.560;13.508;2023-03-02T08:49:15;102043.31;;;-0.53;100.00
13734;BME280;43298;52.560;13.508;2023-03-02T08:51:41;102047.09;;;-0.36;100.00
13734;BME280;43298;52.560;13.508;2023-03-02T08:54:09;102044.69;;;-0.30;100.00
13734;BME280;43298;52.560;13.508;2023-03-02T08:56:37;102044.50;;;-0.38;100.00
13734;BME280;43298;52.560;13.508;2023-03-02T08:59:08;102040.47;;;-0.30;100.00
13734;BME280;43298;52.560;13.508;2023-03-02T09:01:36;102046.47;;;-0.26;100.00
13734;BME280;43298;52.560;13.508;2023-03-02T09:04:04;102037.25;;;-0.23;100.00
13734;BME280;43298;52.560;13.508;2023-03-02T09:06:33;102040.03;;;-0.12;100.00
13734;BME280;43298;52.560;13.508;2023-03-02T09:09:00;102028.22;;;-0.46;100.00
13734;BME280;43298;52.560;13.508;2023-03-02T09:11:26;102025.78;;;-0.43;100.00
13734;BME280;43298;52.560;13.508;2023-03-02T09:13:52;102028.19;;;-0.47;100.00
13734;BME280;43298;52.560;13.508;2023-03-02T09:16:19;102019.66;;;-0.51;100.00
13734;BME280;43298;52.560;13.508;2023-03-02T09:18:46;102019.94;;;-0.39;100.00
13734;BME280;43298;52.560;13.508;2023-03-02T09:21:12;102015.91;;;0.08;100.00
13734;BME280;43298;52.560;13.508;2023-03-02T09:23:38;102019.94;;;-0.02;100.00
13734;BME280;43298;52.560;13.508;2023-03-02T09:26:04;102029.53;;;0.12;100.00
13734;BME280;43298;52.560;13.508;2023-03-02T09:28:30;102021.50;;;0.32;100.00
13734;BME280;43298;52.560;13.508;2023-03-02T09:30:58;102019.56;;;0.21;100.00
13734;BME280;43298;52.560;13.508;2023-03-02T09:33:25;102018.81;;;0.25;100.00
13734;BME280;43298;52.560;13.508;2023-03-02T09:35:51;102021.84;;;0.08;100.00
13734;BME280;43298;52.560;13.508;2023-03-02T09:38:17;102031.94;;;0.04;100.00
13734;BME280;43298;52.560;13.508;2023-03-02T09:52:32;102020.88;;;-0.35;100.00
13734;BME280;43298;52.560;13.508;2023-03-02T09:55:25;102026.28;;;-0.20;100.00
13734;BME280;43298;52.560;13.508;2023-03-02T09:57:54;102016.47;;;-0.05;100.00
13734;BME280;43298;52.560;13.508;2023-03-02T10:00:30;102022.69;;;0.09;100.00
13734;BME280;43298;52.560;13.508;2023-03-02T10:03:04;102024.84;;;0.31;100.00
13734;BME280;43298;52.560;13.508;2023-03-02T10:05:43;102027.50;;;0.36;100.00
13734;BME280;43298;52.560;13.508;2023-03-02T10:08:24;102030.53;;;0.20;100.00
13734;BME280;43298;52.560;13.508;2023-03-02T10:14:08;102029.00;;;0.26;100.00
13734;BME280;43298;52.560;13.508;2023-03-02T10:16:48;102023.41;;;0.44;100.00
13734;BME280;43298;52.560;13.508;2023-03-02T10:22:03;102020.75;;;0.36;100.00
13734;BME280;43298;52.560;13.508;2023-03-02T10:27:41;102009.97;;;0.49;100.00
13734;BME280;43298;52.560;13.508;2023-03-02T10:30:20;102008.97;;;0.41;100.00
13734;BME280;43298;52.560;13.508;2023-03-02T10:32:54;102003.72;;;0.77;100.00
13734;BME280;43298;52.560;13.508;2023-03-02T10:35:24;101996.25;;;0.87;100.00
13734;BME280;43298;52.560;13.508;2023-03-02T10:38:01;102003.34;;;0.59;100.00
13734;BME280;43298;52.560;13.508;2023-03-02T10:40:46;102002.91;;;0.79;100.00
13734;BME280;43298;52.560;13.508;2023-03-02T10:43:19;101992.94;;;0.91;100.00
13734;BME280;43298;52.560;13.508;2023-03-02T10:46:05;101991.66;;;1.16;100.00
13734;BME280;43298;52.560;13.508;2023-03-02T10:48:54;101989.16;;;1.19;100.00
13734;BME280;43298;52.560;13.508;2023-03-02T10:51:32;101982.88;;;0.97;100.00
13734;BME280;43298;52.560;13.508;2023-03-02T10:56:36;101989.28;;;1.26;100.00
13734;BME280;43298;52.560;13.508;2023-03-02T11:02:21;101976.78;;;0.91;100.00
13734;BME280;43298;52.560;13.508;2023-03-02T11:04:53;101974.56;;;1.07;100.00
13734;BME280;43298;52.560;13.508;2023-03-02T11:07:23;101963.94;;;1.34;100.00
13734;BME280;43298;52.560;13.508;2023-03-02T11:10:06;101961.44;;;1.38;100.00
13734;BME280;43298;52.560;13.508;2023-03-02T11:12:46;101954.81;;;1.46;100.00
13734;BME280;43298;52.560;13.508;2023-03-02T11:21:16;101936.47;;;1.74;100.00
13734;BME280;43298;52.560;13.508;2023-03-02T11:24:05;101938.66;;;2.10;100.00
13734;BME280;43298;52.560;13.508;2023-03-02T11:26:46;101930.09;;;2.06;100.00
13734;BME280;43298;52.560;13.508;2023-03-02T11:29:34;101940.22;;;1.99;100.00
13734;BME280;43298;52.560;13.508;2023-03-02T11:35:43;101929.09;;;1.92;100.00
13734;BME280;43298;52.560;13.508;2023-03-02T11:41:03;101930.25;;;2.18;100.00
13734;BME280;43298;52.560;13.508;2023-03-02T11:43:31;101922.69;;;2.24;100.00
13734;BME280;43298;52.560;13.508;2023-03-02T11:46:04;101923.81;;;1.80;100.00
13734;BME280;43298;52.560;13.508;2023-03-02T11:48:47;101915.59;;;2.04;100.00
13734;BME280;43298;52.560;13.508;2023-03-02T11:51:29;101914.72;;;1.99;100.00
13734;BME280;43298;52.560;13.508;2023-03-02T11:54:39;101910.72;;;2.23;100.00
13734;BME280;43298;52.560;13.508;2023-03-02T11:57:24;101901.63;;;2.45;100.00
13734;BME280;43298;52.560;13.508;2023-03-02T11:59:52;101898.13;;;2.35;100.00
13734;BME280;43298;52.560;13.508;2023-03-02T12:02:19;101898.81;;;2.21;100.00
13734;BME280;43298;52.560;13.508;2023-03-02T12:04:47;101889.41;;;2.15;100.00
13734;BME280;43298;52.560;13.508;2023-03-02T12:07:20;101893.53;;;2.06;100.00
13734;BME280;43298;52.560;13.508;2023-03-02T12:14:51;101887.94;;;2.41;100.00
13734;BME280;43298;52.560;13.508;2023-03-02T12:17:37;101892.72;;;2.10;100.00
13734;BME280;43298;52.560;13.508;2023-03-02T12:22:34;101882.81;;;2.35;100.00
13734;BME280;43298;52.560;13.508;2023-03-02T12:27:49;101876.19;;;2.55;100.00
13734;BME280;43298;52.560;13.508;2023-03-02T12:32:45;101871.66;;;2.24;100.00
13734;BME280;43298;52.560;13.508;2023-03-02T12:35:23;101862.50;;;2.47;100.00
13734;BME280;43298;52.560;13.508;2023-03-02T12:37:54;101869.28;;;2.45;100.00
13734;BME280;43298;52.560;13.508;2023-03-02T12:43:35;101863.31;;;2.43;100.00
13734;BME280;43298;52.560;13.508;2023-03-02T12:51:56;101853.72;;;2.18;100.00
13734;BME280;43298;52.560;13.508;2023-03-02T12:54:29;101843.59;;;2.27;100.00
13734;BME280;43298;52.560;13.508;2023-03-02T12:57:21;101849.88;;;2.65;100.00
13734;BME280;43298;52.560;13.508;2023-03-02T12:59:57;101850.13;;;2.92;100.00
13734;BME280;43298;52.560;13.508;2023-03-02T13:02:34;101845.47;;;2.46;100.00
13734;BME280;43298;52.560;13.508;2023-03-02T13:05:04;101849.19;;;2.81;100.00
13734;BME280;43298;52.560;13.508;2023-03-02T13:07:44;101845.69;;;2.73;100.00
13734;BME280;43298;52.560;13.508;2023-03-02T13:10:35;101838.16;;;2.90;100.00
13734;BME280;43298;52.560;13.508;2023-03-02T13:15:53;101837.28;;;2.85;100.00
13734;BME280;43298;52.560;13.508;2023-03-02T13:18:21;101836.38;;;2.78;100.00
13734;BME280;43298;52.560;13.508;2023-03-02T13:20:48;101838.97;;;2.80;100.00
13734;BME280;43298;52.560;13.508;2023-03-02T13:23:16;101838.03;;;2.72;100.00
13734;BME280;43298;52.560;13.508;2023-03-02T13:25:58;101843.03;;;2.60;100.00
13734;BME280;43298;52.560;13.508;2023-03-02T13:28:34;101842.16;;;2.59;100.00
13734;BME280;43298;52.560;13.508;2023-03-02T13:31:21;101843.75;;;2.42;100.00
13734;BME280;43298;52.560;13.508;2023-03-02T13:33:49;101841.28;;;2.54;100.00
13734;BME280;43298;52.560;13.508;2023-03-02T13:36:21;101837.69;;;2.33;100.00
13734;BME280;43298;52.560;13.508;2023-03-02T13:38:52;101835.31;;;2.52;100.00
13734;BME280;43298;52.560;13.508;2023-03-02T13:41:30;101838.66;;;2.45;100.00
13734;BME280;43298;52.560;13.508;2023-03-02T13:43:57;101835.91;;;2.23;100.00
13734;BME280;43298;52.560;13.508;2023-03-02T13:46:28;101830.03;;;2.34;100.00
13734;BME280;43298;52.560;13.508;2023-03-02T13:49:06;101826.81;;;2.50;100.00
13734;BME280;43298;52.560;13.508;2023-03-02T13:51:41;101827.50;;;2.36;100.00
13734;BME280;43298;52.560;13.508;2023-03-02T13:54:41;101817.44;;;2.49;100.00
13734;BME280;43298;52.560;13.508;2023-03-02T13:57:15;101817.47;;;2.55;100.00
13734;BME280;43298;52.560;13.508;2023-03-02T13:59:43;101814.84;;;2.46;100.00